Time;durP1;ratioP1;P1;durP2;ratioP2;P2;SDS_P1;SDS_P2;PMS_P1;PMS_P2;Temp;Humidity;BMP_temperature;BMP_pressure;BME280_temperature;BME280_humidity;BME280_pressure;Samples;Min_cycle;Max_cycle;Signal;HPM_P1;HPM_P2
2022/05/02 00:01:19;;;;;;;11.75;6.10;;;6.10;99.90;;;;;;5025985;28;20045;-86
2022/05/02 00:03:45;;;;;;;12.40;6.20;;;6.30;99.90;;;;;;5041224;28;20127;-87
2022/05/02 00:06:10;;;;;;;13.18;6.30;;;7.30;99.90;;;;;;5037853;28;20044;-86
2022/05/02 00:08:36;;;;;;;11.48;6.68;;;6.60;99.90;;;;;;5025295;28;20049;-86
2022/05/02 00:11:02;;;;;;;12.48;6.22;;;5.90;99.90;;;;;;5049130;28;20084;-86
2022/05/02 00:13:27;;;;;;;16.23;7.25;;;5.80;99.90;;;;;;5032799;28;20040;-86
2022/05/02 00:15:53;;;;;;;12.45;6.35;;;5.90;99.90;;;;;;5033986;28;20119;-87
2022/05/02 00:18:19;;;;;;;11.88;6.53;;;6.10;99.90;;;;;;5032168;28;20465;-87
2022/05/02 00:20:45;;;;;;;11.20;6.50;;;5.80;99.90;;;;;;5043792;28;20041;-87
2022/05/02 00:23:11;;;;;;;11.60;6.50;;;6.20;99.90;;;;;;5048437;28;20123;-86
2022/05/02 00:25:37;;;;;;;12.15;6.80;;;5.70;99.90;;;;;;5041996;28;20123;-86
2022/05/02 00:28:04;;;;;;;11.93;6.90;;;5.70;99.90;;;;;;5049227;28;20434;-86
2022/05/02 00:30:31;;;;;;;12.43;7.18;;;5.70;99.90;;;;;;5047851;28;20056;-86
2022/05/02 00:32:58;;;;;;;12.13;7.28;;;5.70;99.90;;;;;;5047077;28;20071;-86
2022/05/02 00:35:24;;;;;;;12.38;6.85;;;5.70;99.90;;;;;;5043749;28;20371;-86
2022/05/02 00:37:50;;;;;;;12.10;6.80;;;5.70;99.90;;;;;;5052578;28;20567;-86
2022/05/02 00:40:17;;;;;;;11.70;6.57;;;5.70;99.90;;;;;;5033341;28;20094;-86
2022/05/02 00:42:44;;;;;;;12.13;6.75;;;5.80;99.90;;;;;;5062628;28;20124;-86
2022/05/02 00:45:14;;;;;;;14.50;6.97;;;5.80;99.90;;;;;;5042438;28;20079;-86
2022/05/02 00:47:40;;;;;;;12.10;7.03;;;5.50;99.90;;;;;;5036730;28;20037;-86
2022/05/02 00:50:08;;;;;;;12.55;7.15;;;5.50;99.90;;;;;;5051453;28;20126;-86
2022/05/02 00:52:34;;;;;;;12.43;7.13;;;5.50;99.90;;;;;;5043048;28;20033;-86
2022/05/02 00:55:02;;;;;;;11.75;7.10;;;5.50;99.90;;;;;;5051815;28;20044;-86
2022/05/02 00:57:29;;;;;;;14.90;7.63;;;6.50;99.90;;;;;;5051904;28;20215;-85
2022/05/02 00:59:55;;;;;;;13.43;7.65;;;5.40;99.90;;;;;;5064502;28;20039;-85
2022/05/02 01:02:20;;;;;;;15.25;6.93;;;5.60;99.90;;;;;;5041572;28;20032;-85
2022/05/02 01:04:46;;;;;;;13.07;7.88;;;5.70;99.90;;;;;;5022730;28;20087;-85
2022/05/02 01:07:12;;;;;;;13.80;8.32;;;5.40;99.90;;;;;;5042336;28;20090;-85
2022/05/02 01:09:43;;;;;;;14.68;7.63;;;5.40;99.90;;;;;;5047837;28;20061;-85
2022/05/02 01:12:11;;;;;;;13.82;7.55;;;5.40;99.90;;;;;;5048932;28;20124;-86
2022/05/02 01:14:38;;;;;;;13.80;7.55;;;5.40;99.90;;;;;;5053909;28;20035;-85
2022/05/02 01:17:04;;;;;;;12.20;7.43;;;5.70;99.90;;;;;;5032258;28;20371;-86
2022/05/02 01:19:30;;;;;;;13.98;8.00;;;5.30;99.90;;;;;;5047214;28;20449;-86
2022/05/02 01:21:56;;;;;;;13.85;7.50;;;5.30;99.90;;;;;;5049429;28;20048;-86
2022/05/02 01:24:35;;;;;;;12.38;7.35;;;5.30;99.90;;;;;;5014110;28;20041;-85
2022/05/02 01:27:02;;;;;;;14.07;7.32;;;5.30;99.90;;;;;;5043870;28;20091;-86
2022/05/02 01:29:27;;;;;;;13.88;7.50;;;5.30;99.90;;;;;;5033856;28;20183;-85
2022/05/02 01:31:54;;;;;;;11.95;7.43;;;6.50;99.90;;;;;;5036713;28;20029;-85
2022/05/02 01:34:20;;;;;;;12.50;7.45;;;5.50;99.90;;;;;;5062339;28;20067;-85
2022/05/02 01:36:46;;;;;;;14.90;7.93;;;5.30;99.90;;;;;;5023555;28;20072;-86
2022/05/02 01:39:12;;;;;;;14.18;8.32;;;5.20;99.90;;;;;;5050808;28;20037;-85
2022/05/02 01:41:37;;;;;;;14.88;7.93;;;5.20;99.90;;;;;;5046484;28;20037;-85
2022/05/02 01:44:03;;;;;;;14.73;8.32;;;5.20;99.90;;;;;;5029018;28;20047;-85
2022/05/02 01:46:29;;;;;;;16.10;9.15;;;5.20;99.90;;;;;;5060051;28;20094;-85
2022/05/02 01:48:56;;;;;;;16.58;8.90;;;5.40;99.90;;;;;;5028942;28;20107;-85
2022/05/02 01:51:22;;;;;;;13.70;8.02;;;5.10;99.90;;;;;;5032300;28;20502;-85
2022/05/02 01:53:47;;;;;;;14.10;8.23;;;5.20;99.90;;;;;;5061000;28;20047;-85
2022/05/02 01:56:13;;;;;;;13.55;8.27;;;5.70;99.90;;;;;;5038216;28;20044;-85
2022/05/02 01:58:39;;;;;;;14.70;8.02;;;5.10;99.90;;;;;;5041611;28;20032;-85
2022/05/02 02:01:05;;;;;;;13.80;8.07;;;5.10;99.90;;;;;;5043794;28;20033;-85
2022/05/02 02:03:31;;;;;;;15.07;8.02;;;6.00;99.90;;;;;;5032669;28;20517;-85
2022/05/02 02:05:58;;;;;;;12.38;7.88;;;5.80;99.90;;;;;;5051087;28;20040;-85
2022/05/02 02:08:32;;;;;;;13.20;8.07;;;5.20;99.90;;;;;;5031096;28;20128;-85
2022/05/02 02:11:07;;;;;;;12.60;7.97;;;4.90;99.90;;;;;;5061872;28;20072;-85
2022/05/02 02:13:33;;;;;;;13.20;7.97;;;4.90;99.90;;;;;;5060767;28;20036;-85
2022/05/02 02:16:00;;;;;;;13.48;8.15;;;5.50;99.90;;;;;;5047937;28;20037;-85
2022/05/02 02:18:26;;;;;;;14.23;8.15;;;4.90;99.90;;;;;;5059943;28;20047;-85
2022/05/02 02:20:53;;;;;;;14.10;7.93;;;4.90;99.90;;;;;;5066141;28;20127;-85
2022/05/02 02:23:20;;;;;;;13.07;7.60;;;4.90;99.90;;;;;;5027174;28;20041;-86
2022/05/02 02:25:46;;;;;;;13.00;8.00;;;4.90;99.90;;;;;;5050767;28;20036;-85
2022/05/02 02:28:16;;;;;;;14.30;8.35;;;4.90;99.90;;;;;;5034382;28;20387;-85
2022/05/02 02:30:43;;;;;;;15.38;8.15;;;4.90;99.90;;;;;;5051703;28;20094;-85
2022/05/02 02:33:10;;;;;;;13.48;7.90;;;4.90;99.90;;;;;;5063588;28;20040;-85
2022/05/02 02:35:36;;;;;;;14.43;8.38;;;4.80;99.90;;;;;;5053804;28;20047;-85
2022/05/02 02:38:02;;;;;;;13.45;8.23;;;4.80;99.90;;;;;;5059699;28;20040;-85
2022/05/02 02:40:28;;;;;;;12.73;8.07;;;6.20;99.90;;;;;;5050633;28;20512;-85
2022/05/02 02:42:54;;;;;;;13.32;7.95;;;4.80;99.90;;;;;;5046664;28;20037;-85
2022/05/02 02:45:20;;;;;;;13.85;8.65;;;4.80;99.90;;;;;;5040748;28;20055;-86
2022/05/02 02:47:46;;;;;;;14.65;8.77;;;4.80;99.90;;;;;;5029879;28;20043;-86
2022/05/02 02:50:12;;;;;;;13.48;8.18;;;5.50;99.90;;;;;;5044595;28;20509;-85
2022/05/02 02:52:38;;;;;;;13.88;7.85;;;4.80;99.90;;;;;;5067273;28;20039;-85
2022/05/02 02:55:04;;;;;;;11.95;7.50;;;5.30;99.90;;;;;;5045084;28;20108;-85
2022/05/02 02:57:30;;;;;;;13.38;7.88;;;4.70;99.90;;;;;;5056562;28;20039;-85
2022/05/02 02:59:56;;;;;;;13.55;8.18;;;5.00;99.90;;;;;;5029585;28;20039;-85
2022/05/02 03:02:23;;;;;;;13.77;8.13;;;4.70;99.90;;;;;;5048759;28;20040;-85
2022/05/02 03:07:33;;;;;;;12.40;7.47;;;5.40;99.90;;;;;;5043292;28;20048;-85
2022/05/02 03:09:59;;;;;;;12.57;7.68;;;4.60;99.90;;;;;;5069885;28;20086;-85
2022/05/02 03:12:25;;;;;;;12.63;8.05;;;4.80;99.90;;;;;;5048927;28;20140;-85
2022/05/02 03:14:51;;;;;;;12.70;7.35;;;5.10;99.90;;;;;;5046037;28;20508;-85
2022/05/02 03:17:17;;;;;;;11.50;7.32;;;5.10;99.90;;;;;;5053422;28;20100;-85
2022/05/02 03:19:42;;;;;;;12.80;7.57;;;4.60;99.90;;;;;;5070761;28;20040;-85
2022/05/02 03:22:08;;;;;;;11.80;6.68;;;4.50;99.90;;;;;;5069028;28;20412;-85
2022/05/02 03:24:34;;;;;;;12.10;7.05;;;4.50;99.90;;;;;;5054836;28;20106;-85
2022/05/02 03:27:00;;;;;;;12.52;7.50;;;4.50;99.90;;;;;;5055383;28;20076;-85
2022/05/02 03:29:26;;;;;;;12.02;6.65;;;4.50;99.90;;;;;;5034964;28;20516;-85
2022/05/02 03:31:51;;;;;;;10.13;5.85;;;4.40;99.90;;;;;;5051141;28;20093;-85
2022/05/02 03:34:17;;;;;;;11.63;6.07;;;4.40;99.90;;;;;;5070482;28;20040;-85
2022/05/02 03:36:43;;;;;;;11.77;6.13;;;4.30;99.90;;;;;;5054532;28;20075;-85
2022/05/02 03:39:09;;;;;;;13.30;5.85;;;4.60;99.90;;;;;;5042695;28;20160;-84
2022/05/02 03:41:34;;;;;;;12.05;6.03;;;4.40;99.90;;;;;;5052352;28;20037;-85
2022/05/02 03:44:00;;;;;;;10.05;5.90;;;4.30;99.90;;;;;;5042241;28;20044;-85
2022/05/02 03:46:26;;;;;;;11.27;5.55;;;4.30;99.90;;;;;;5038142;28;20294;-85
2022/05/02 03:48:52;;;;;;;10.10;5.63;;;4.90;99.90;;;;;;5051316;28;20044;-85
2022/05/02 03:51:18;;;;;;;10.13;5.30;;;4.20;99.90;;;;;;5041838;28;20051;-86
2022/05/02 03:53:44;;;;;;;10.00;5.75;;;4.20;99.90;;;;;;5054073;28;20094;-86
2022/05/02 03:56:10;;;;;;;9.25;4.72;;;4.20;99.90;;;;;;5054286;28;20032;-85
2022/05/02 03:58:36;;;;;;;9.40;4.80;;;4.20;99.90;;;;;;5054075;28;20032;-85
2022/05/02 04:01:02;;;;;;;9.43;4.63;;;4.10;99.90;;;;;;5071020;28;20044;-85
2022/05/02 04:03:28;;;;;;;9.55;5.15;;;5.00;99.90;;;;;;5068269;28;20052;-85
2022/05/02 04:05:54;;;;;;;10.35;5.45;;;4.10;99.90;;;;;;5054516;28;20067;-85
2022/05/02 04:08:21;;;;;;;9.60;5.30;;;4.10;99.90;;;;;;5019118;28;20099;-85
2022/05/02 04:10:47;;;;;;;10.77;5.30;;;4.40;99.90;;;;;;5037424;28;20505;-85
2022/05/02 04:13:13;;;;;;;9.70;5.45;;;4.70;99.90;;;;;;5051615;28;20040;-85
2022/05/02 04:15:38;;;;;;;11.00;5.70;;;4.10;99.90;;;;;;5043447;28;20074;-84
2022/05/02 04:18:04;;;;;;;10.68;5.32;;;4.10;99.90;;;;;;5046239;28;20037;-85
2022/05/02 04:20:30;;;;;;;10.68;4.88;;;4.10;99.90;;;;;;5049179;28;20044;-85
2022/05/02 04:22:56;;;;;;;10.43;5.22;;;4.60;99.90;;;;;;5031787;28;20052;-85
2022/05/02 04:25:21;;;;;;;9.02;4.57;;;4.10;99.90;;;;;;5046883;28;20576;-85
2022/05/02 04:27:47;;;;;;;8.57;4.20;;;5.30;99.90;;;;;;5044390;28;20036;-85
2022/05/02 04:30:13;;;;;;;9.25;4.22;;;4.10;99.90;;;;;;5064390;28;20539;-85
2022/05/02 04:32:39;;;;;;;9.02;4.40;;;4.10;99.90;;;;;;5032985;28;20032;-85
2022/05/02 04:35:05;;;;;;;8.63;4.15;;;4.10;99.90;;;;;;5069451;28;20098;-85
2022/05/02 04:37:31;;;;;;;9.10;4.75;;;4.20;99.90;;;;;;5042991;28;20045;-85
2022/05/02 04:39:57;;;;;;;9.30;4.70;;;4.20;99.90;;;;;;5043829;28;20037;-85
2022/05/02 04:42:23;;;;;;;9.27;5.00;;;4.20;99.90;;;;;;5019283;28;20064;-85
2022/05/02 04:44:49;;;;;;;9.63;4.40;;;4.70;99.90;;;;;;5036773;28;20044;-85
2022/05/02 04:47:15;;;;;;;9.38;4.30;;;4.30;99.90;;;;;;5028650;28;20101;-86
2022/05/02 04:49:41;;;;;;;8.88;4.25;;;5.30;99.90;;;;;;5053470;28;20190;-85
2022/05/02 04:52:07;;;;;;;9.55;5.03;;;4.40;99.90;;;;;;5045955;28;20576;-84
2022/05/02 04:54:33;;;;;;;10.45;5.35;;;5.30;99.90;;;;;;5063824;28;20052;-85
2022/05/02 04:56:58;;;;;;;10.88;5.72;;;4.40;99.90;;;;;;5036463;28;20119;-85
2022/05/02 04:59:24;;;;;;;10.20;5.45;;;4.10;99.90;;;;;;5025859;28;20555;-85
2022/05/02 05:01:50;;;;;;;9.80;5.50;;;4.50;99.90;;;;;;5031988;28;20039;-85
2022/05/02 05:04:16;;;;;;;10.35;5.60;;;5.80;99.90;;;;;;5030372;28;20786;-85
2022/05/02 05:06:42;;;;;;;10.45;5.57;;;4.80;99.90;;;;;;5033262;28;20076;-85
2022/05/02 05:09:07;;;;;;;10.50;5.70;;;4.70;99.90;;;;;;5031756;28;20139;-85
2022/05/02 05:12:09;;;;;;;11.85;6.38;;;4.90;99.90;;;;;;5032197;28;20041;-85
2022/05/02 05:17:54;;;;;;;11.82;6.50;;;4.80;99.90;;;;;;5068448;28;20040;-87
2022/05/02 05:20:58;;;;;;;11.27;6.35;;;5.00;99.90;;;;;;5040398;28;20393;-86
2022/05/02 05:23:24;;;;;;;;;;;5.10;99.90;;;;;;5041166;28;20098;-85
2022/05/02 05:26:15;;;;;;;14.13;7.43;;;5.30;99.90;;;;;;5069178;28;20188;-85
2022/05/02 05:28:59;;;;;;;13.35;7.97;;;5.40;99.90;;;;;;5064254;28;20041;-85
2022/05/02 05:31:32;;;;;;;15.70;9.18;;;5.50;99.90;;;;;;5058511;28;20497;-86
2022/05/02 05:34:09;;;;;;;17.15;10.52;;;5.70;99.90;;;;;;5039582;28;20079;-85
2022/05/02 05:37:06;;;;;;;17.50;11.35;;;5.80;99.90;;;;;;5042879;28;20055;-85
2022/05/02 05:39:58;;;;;;;16.90;10.98;;;6.00;99.90;;;;;;5068650;28;20072;-85
2022/05/02 05:42:53;;;;;;;17.45;11.70;;;6.20;99.90;;;;;;5063325;28;20036;-86
2022/05/02 05:45:57;;;;;;;18.73;11.57;;;6.30;99.90;;;;;;5040442;28;20410;-85
2022/05/02 05:48:35;;;;;;;;;;;6.50;99.90;;;;;;5056001;28;20379;-86
2022/05/02 05:51:23;;;;;;;20.70;13.15;;;6.70;99.90;;;;;;5066053;28;20469;-86
2022/05/02 05:54:14;;;;;;;21.27;14.15;;;6.80;99.90;;;;;;5068707;28;20037;-86
2022/05/02 05:57:01;;;;;;;21.15;13.43;;;7.10;99.90;;;;;;5069256;28;20052;-86
2022/05/02 06:00:02;;;;;;;18.95;11.68;;;7.20;99.90;;;;;;5067553;28;20040;-86
2022/05/02 06:02:59;;;;;;;18.50;12.02;;;7.30;99.90;;;;;;5067604;28;20123;-86
2022/05/02 06:05:26;;;;;;;17.85;12.00;;;7.50;99.90;;;;;;5051268;28;20041;-85
2022/05/02 06:07:52;;;;;;;18.13;11.13;;;8.00;99.90;;;;;;5047880;28;20028;-86
2022/05/02 06:10:19;;;;;;;17.05;10.90;;;7.80;99.90;;;;;;5050791;28;20574;-87
2022/05/02 06:12:45;;;;;;;17.80;10.50;;;8.80;99.90;;;;;;5048668;28;20048;-87
2022/05/02 06:20:45;;;;;;;16.00;9.38;;;8.40;99.90;;;;;;5051861;28;20054;-86
2022/05/02 06:23:13;;;;;;;16.52;9.85;;;8.80;99.90;;;;;;5041782;28;20094;-85
2022/05/02 06:25:40;;;;;;;16.77;9.07;;;8.90;99.90;;;;;;5066226;28;20045;-86
2022/05/02 06:28:07;;;;;;;18.25;9.98;;;8.80;99.90;;;;;;5052000;28;20429;-86
2022/05/02 06:30:41;;;;;;;15.55;9.27;;;8.90;99.90;;;;;;5049713;28;20039;-86
2022/05/02 06:33:12;;;;;;;14.98;9.25;;;9.00;99.90;;;;;;5058704;28;20033;-86
2022/05/02 06:36:08;;;;;;;16.92;9.43;;;9.30;99.90;;;;;;5068438;28;20040;-86
2022/05/02 06:38:37;;;;;;;15.05;9.63;;;9.20;99.90;;;;;;5054644;28;20044;-86
2022/05/02 06:41:24;;;;;;;16.88;10.38;;;9.30;99.90;;;;;;5066967;28;20039;-86
2022/05/02 06:44:25;;;;;;;15.07;9.82;;;9.50;99.90;;;;;;5065281;28;20417;-86
2022/05/02 06:47:10;;;;;;;17.90;10.80;;;9.60;99.90;;;;;;5063017;28;20127;-86
2022/05/02 06:49:42;;;;;;;14.88;9.13;;;9.70;99.90;;;;;;5049205;28;20037;-86
2022/05/02 06:52:10;;;;;;;16.00;10.05;;;9.90;99.90;;;;;;5068073;28;20465;-87
2022/05/02 06:54:48;;;;;;;15.57;9.32;;;10.10;99.90;;;;;;5068618;28;20382;-85
2022/05/02 06:57:32;;;;;;;16.63;9.35;;;10.20;99.90;;;;;;5064828;28;20040;-86
2022/05/02 07:00:07;;;;;;;13.82;8.68;;;10.30;99.90;;;;;;5059103;28;20083;-86
2022/05/02 07:02:57;;;;;;;17.30;8.93;;;10.40;99.90;;;;;;5051455;28;20505;-85
2022/05/02 07:05:37;;;;;;;13.63;8.73;;;10.60;99.90;;;;;;5065305;28;20052;-86
2022/05/02 07:08:05;;;;;;;13.30;8.65;;;10.70;99.90;;;;;;5051704;28;20041;-86
2022/05/02 07:10:34;;;;;;;15.25;8.52;;;10.80;99.90;;;;;;5061083;28;20210;-85
2022/05/02 07:13:13;;;;;;;13.25;8.57;;;10.90;99.90;;;;;;5056597;28;20041;-86
2022/05/02 07:15:48;;;;;;;14.15;7.93;;;11.00;99.90;;;;;;5047990;28;20033;-86
2022/05/02 07:18:36;;;;;;;13.32;7.88;;;11.10;99.90;;;;;;5062281;28;20393;-86
2022/05/02 07:21:30;;;;;;;13.55;7.63;;;11.10;99.90;;;;;;5062762;28;20044;-87
2022/05/02 07:24:07;;;;;;;13.32;7.40;;;11.20;99.90;;;;;;5032167;28;20037;-86
2022/05/02 07:26:36;;;;;;;12.63;7.57;;;11.20;99.90;;;;;;5044431;28;20200;-87
2022/05/02 07:29:04;;;;;;;12.93;7.75;;;11.50;99.90;;;;;;5043093;28;20119;-86
2022/05/02 07:31:31;;;;;;;12.63;7.93;;;11.40;99.90;;;;;;5025986;28;20128;-86
2022/05/02 07:33:57;;;;;;;14.43;7.97;;;11.50;99.90;;;;;;5030905;28;20230;-85
2022/05/02 07:36:25;;;;;;;14.90;7.55;;;11.60;99.90;;;;;;5061407;28;20037;-85
2022/05/02 07:39:01;;;;;;;14.10;7.60;;;11.80;99.90;;;;;;5069553;28;20400;-85
2022/05/02 07:41:27;;;;;;;14.85;7.55;;;11.90;99.90;;;;;;5049201;28;20087;-85
2022/05/02 07:44:05;;;;;;;12.85;7.70;;;12.00;99.90;;;;;;5023496;28;20243;-85
2022/05/02 07:46:38;;;;;;;12.38;7.88;;;12.10;99.90;;;;;;5047760;28;20048;-85
2022/05/02 07:49:05;;;;;;;;;;;12.40;99.90;;;;;;5061128;28;20374;-85
2022/05/02 07:51:31;;;;;;;12.73;7.40;;;12.50;99.90;;;;;;5054244;28;19920;-84
2022/05/02 07:53:59;;;;;;;13.52;7.43;;;12.60;99.90;;;;;;5054493;28;20044;-86
2022/05/02 07:56:27;;;;;;;13.38;7.72;;;12.60;99.90;;;;;;5054763;28;20087;-86
2022/05/02 07:58:54;;;;;;;11.85;7.47;;;12.70;99.90;;;;;;5061038;28;20044;-85
2022/05/02 08:01:22;;;;;;;13.75;7.82;;;12.70;99.90;;;;;;5058752;28;20033;-86
2022/05/02 08:03:47;;;;;;;13.05;7.60;;;12.90;99.90;;;;;;5030077;28;20048;-85
2022/05/02 08:06:43;;;;;;;12.45;7.15;;;12.80;99.90;;;;;;5029609;28;20041;-86
2022/05/02 08:09:41;;;;;;;15.10;7.95;;;12.90;99.90;;;;;;5067340;28;20115;-85
2022/05/02 08:12:29;;;;;;;14.20;7.00;;;12.90;99.90;;;;;;5058635;28;20049;-85
2022/05/02 08:15:11;;;;;;;12.07;6.35;;;13.00;99.90;;;;;;5051888;28;20593;-86
2022/05/02 08:18:02;;;;;;;12.75;6.95;;;13.10;99.90;;;;;;5052374;28;20086;-86
2022/05/02 08:20:48;;;;;;;11.60;6.50;;;13.20;99.90;;;;;;5059850;28;20441;-86
2022/05/02 08:27:17;;;;;;;13.27;7.28;;;13.40;99.90;;;;;;5070752;28;20052;-87
2022/05/02 08:30:05;;;;;;;12.02;6.25;;;13.40;99.90;;;;;;5050426;28;20052;-87
2022/05/02 08:32:59;;;;;;;12.35;6.93;;;13.50;99.90;;;;;;5045637;28;20045;-86
2022/05/02 08:35:50;;;;;;;13.48;6.68;;;13.60;99.90;;;;;;5070189;28;20068;-86
2022/05/02 08:38:45;;;;;;;11.20;6.80;;;13.70;99.90;;;;;;5057273;28;20041;-86
2022/05/02 08:41:14;;;;;;;12.25;6.55;;;13.80;99.90;;;;;;5070102;28;20099;-87
2022/05/02 08:43:48;;;;;;;12.93;6.35;;;13.60;99.90;;;;;;5053690;28;20170;-86
2022/05/02 08:46:33;;;;;;;11.15;6.40;;;13.70;99.90;;;;;;5055904;28;20113;-87
2022/05/02 08:49:38;;;;;;;13.30;6.65;;;13.70;99.90;;;;;;5063123;28;20095;-86
2022/05/02 08:52:26;;;;;;;12.52;7.10;;;13.80;99.90;;;;;;5040497;28;20064;-86
2022/05/02 08:55:03;;;;;;;11.80;6.15;;;13.90;99.90;;;;;;5050161;28;20047;-86
2022/05/02 08:57:32;;;;;;;11.40;6.75;;;14.10;99.90;;;;;;5045187;28;20428;-86
2022/05/02 09:00:11;;;;;;;13.07;7.07;;;14.10;99.90;;;;;;5056332;28;20047;-85
2022/05/02 09:02:54;;;;;;;13.05;6.10;;;14.20;99.90;;;;;;5046697;28;20125;-86
2022/05/02 09:05:29;;;;;;;12.77;7.15;;;14.40;99.90;;;;;;5049324;28;20041;-86
2022/05/02 09:08:25;;;;;;;14.80;6.22;;;14.40;99.90;;;;;;5051724;28;20048;-86
2022/05/02 09:11:10;;;;;;;11.25;6.20;;;14.40;99.90;;;;;;5055876;28;20406;-86
2022/05/02 09:13:57;;;;;;;12.68;6.38;;;14.50;99.90;;;;;;5051796;28;20056;-86
2022/05/02 09:16:54;;;;;;;12.90;6.43;;;14.40;99.90;;;;;;5052509;28;20041;-86
2022/05/02 09:19:38;;;;;;;10.50;6.03;;;14.50;99.90;;;;;;5052981;28;20113;-87
2022/05/02 09:22:09;;;;;;;11.70;6.38;;;14.60;99.90;;;;;;5053052;28;20044;-86
2022/05/02 09:24:38;;;;;;;11.25;5.90;;;14.70;99.90;;;;;;5068840;28;20040;-86
2022/05/02 09:27:28;;;;;;;11.00;6.05;;;14.80;99.90;;;;;;5052888;28;20040;-87
2022/05/02 09:30:33;;;;;;;10.60;5.78;;;14.90;99.90;;;;;;5058404;28;20045;-86
2022/05/02 09:33:17;;;;;;;12.45;6.82;;;15.00;99.90;;;;;;5055922;28;20036;-86
2022/05/02 09:36:29;;;;;;;12.80;6.55;;;14.90;99.90;;;;;;5063195;28;20052;-86
2022/05/02 09:39:36;;;;;;;12.13;6.30;;;14.70;99.90;;;;;;5063931;28;20448;-86
2022/05/02 09:42:21;;;;;;;12.77;5.97;;;14.60;99.90;;;;;;5034726;28;20059;-86
2022/05/02 09:51:32;;;;;;;10.60;6.18;;;15.00;99.90;;;;;;5068546;28;20045;-87
2022/05/02 09:57:21;;;;;;;12.93;6.57;;;15.40;99.90;;;;;;5068868;28;20045;-85
2022/05/02 10:02:49;;;;;;;12.05;5.93;;;15.00;99.90;;;;;;5037077;28;20079;-87
2022/05/02 10:05:25;;;;;;;11.30;5.55;;;14.50;99.90;;;;;;5064422;28;20390;-86
2022/05/02 10:08:04;;;;;;;10.63;5.97;;;14.40;99.90;;;;;;5049338;28;20044;-86
2022/05/02 10:10:53;;;;;;;12.60;5.40;;;14.60;99.90;;;;;;5051228;28;20090;-86
2022/05/02 10:13:34;;;;;;;12.10;5.57;;;14.80;99.90;;;;;;5068557;28;20049;-87
2022/05/02 10:16:37;;;;;;;12.10;5.80;;;15.00;99.90;;;;;;5068776;28;20139;-86
2022/05/02 10:19:32;;;;;;;10.60;5.55;;;15.30;99.90;;;;;;5067015;28;20095;-86
2022/05/02 10:22:19;;;;;;;9.63;4.97;;;15.60;99.90;;;;;;5023630;28;20508;-86
2022/05/02 10:25:04;;;;;;;10.77;5.40;;;15.80;99.90;;;;;;5058569;28;20038;-86
2022/05/02 10:28:00;;;;;;;10.02;5.00;;;16.10;99.90;;;;;;5051828;28;20036;-87
2022/05/02 10:30:32;;;;;;;10.85;5.45;;;16.20;99.90;;;;;;5051665;28;20036;-86
2022/05/02 10:33:02;;;;;;;;;;;16.40;99.90;;;;;;5069267;28;20131;-87
2022/05/02 10:35:28;;;;;;;11.13;5.60;;;16.40;99.90;;;;;;5065031;28;20020;-87
2022/05/02 10:37:55;;;;;;;11.32;5.40;;;16.50;99.90;;;;;;5021718;28;20186;-87
2022/05/02 10:40:37;;;;;;;9.63;5.28;;;16.50;99.90;;;;;;5046631;28;20037;-86
2022/05/02 10:43:05;;;;;;;11.25;5.30;;;16.70;99.90;;;;;;5052847;28;20075;-86
2022/05/02 10:45:36;;;;;;;10.05;5.53;;;16.90;99.90;;;;;;5068550;28;20437;-87
2022/05/02 10:48:15;;;;;;;10.50;5.40;;;17.00;99.90;;;;;;5059595;28;20068;-86
2022/05/02 10:50:43;;;;;;;10.65;5.13;;;17.20;99.90;;;;;;5042579;28;20033;-86
2022/05/02 10:53:21;;;;;;;11.45;5.45;;;17.30;99.90;;;;;;5043655;28;20046;-86
2022/05/02 10:56:01;;;;;;;11.40;5.47;;;17.30;99.90;;;;;;5051347;28;20301;-86
2022/05/02 10:58:34;;;;;;;11.55;5.63;;;17.40;99.90;;;;;;5051648;28;20040;-87
2022/05/02 11:01:11;;;;;;;;;;;17.50;99.90;;;;;;5059484;28;20080;-87
2022/05/02 11:04:04;;;;;;;12.77;4.97;;;17.50;99.90;;;;;;5047865;28;20007;-86
2022/05/02 11:07:08;;;;;;;11.65;5.32;;;17.60;99.90;;;;;;5043158;28;20037;-87
2022/05/02 11:09:50;;;;;;;10.63;5.00;;;17.50;99.90;;;;;;5043331;28;20505;-87
2022/05/02 11:12:21;;;;;;;10.45;4.95;;;17.50;99.90;;;;;;5065950;28;20190;-88
2022/05/02 11:15:05;;;;;;;12.45;5.25;;;17.40;99.90;;;;;;5061029;28;20070;-87
2022/05/02 11:18:08;;;;;;;11.38;4.93;;;17.00;99.90;;;;;;5072668;28;20048;-88
2022/05/02 11:20:48;;;;;;;;;;;16.80;99.90;;;;;;5055965;28;20400;-89
2022/05/02 11:23:39;;;;;;;12.18;5.15;;;16.70;97.60;;;;;;5071950;28;19974;-89
2022/05/02 11:26:32;;;;;;;11.02;4.75;;;16.90;99.90;;;;;;5059562;28;20490;-88
2022/05/02 11:29:05;;;;;;;10.43;4.38;;;16.90;99.70;;;;;;5055274;28;20066;-88
2022/05/02 11:31:59;;;;;;;10.30;4.18;;;16.90;99.90;;;;;;5064502;28;20049;-87
2022/05/02 11:34:47;;;;;;;8.98;3.97;;;17.00;97.40;;;;;;5066056;28;20044;-88
2022/05/02 11:37:29;;;;;;;8.35;3.75;;;17.10;99.10;;;;;;5072047;28;20098;-89
2022/05/02 11:40:00;;;;;;;9.20;3.92;;;17.20;96.50;;;;;;5055570;28;20033;-88
2022/05/02 11:42:28;;;;;;;8.73;3.95;;;17.30;97.10;;;;;;5044990;28;20040;-88
2022/05/02 11:45:13;;;;;;;9.18;3.90;;;17.20;95.20;;;;;;5071419;28;20552;-88
2022/05/02 11:47:57;;;;;;;10.27;4.20;;;17.30;94.10;;;;;;5054980;28;20076;-88
2022/05/02 11:50:25;;;;;;;9.93;4.05;;;17.50;96.90;;;;;;5062591;28;20046;-88
2022/05/02 11:52:56;;;;;;;9.48;4.32;;;17.70;97.40;;;;;;5065280;28;20033;-88
2022/05/02 11:55:34;;;;;;;10.38;4.30;;;17.60;94.10;;;;;;5032994;28;20037;-87
2022/05/02 11:58:07;;;;;;;11.18;4.43;;;17.70;95.60;;;;;;5050199;28;20040;-88
2022/05/02 12:00:36;;;;;;;9.95;4.30;;;17.80;96.00;;;;;;5031439;28;20065;-88
2022/05/02 12:03:11;;;;;;;12.27;4.45;;;17.70;94.60;;;;;;5046771;28;20036;-88
2022/05/02 12:05:55;;;;;;;11.75;4.70;;;17.40;93.50;;;;;;5052635;28;20116;-87
2022/05/02 12:08:37;;;;;;;8.65;4.15;;;17.10;92.50;;;;;;5068595;28;20517;-87
2022/05/02 12:11:05;;;;;;;11.48;4.53;;;17.10;93.00;;;;;;5048735;28;20049;-88
2022/05/02 12:13:35;;;;;;;11.55;3.80;;;17.20;93.30;;;;;;5089413;28;20101;-88
2022/05/02 12:16:13;;;;;;;8.45;3.88;;;17.30;92.70;;;;;;5055371;28;20040;-88
2022/05/02 12:18:51;;;;;;;9.07;4.38;;;17.40;91.60;;;;;;5060277;28;20036;-88
2022/05/02 12:21:40;;;;;;;8.68;3.65;;;17.40;90.70;;;;;;5034116;28;20044;-88
2022/05/02 12:24:09;;;;;;;9.80;4.00;;;17.50;88.40;;;;;;5035320;28;20040;-86
2022/05/02 12:26:46;;;;;;;10.45;3.90;;;17.60;88.90;;;;;;5033122;28;20050;-86
2022/05/02 12:29:18;;;;;;;8.48;3.50;;;17.60;84.50;;;;;;5064120;28;20041;-86
2022/05/02 12:31:54;;;;;;;8.35;3.83;;;17.70;86.30;;;;;;5054359;28;20032;-85
2022/05/02 12:34:21;;;;;;;8.02;3.45;;;17.70;86.70;;;;;;5042025;28;20044;-87
2022/05/02 12:36:49;;;;;;;8.98;4.00;;;17.70;87.40;;;;;;5043091;28;20114;-88
2022/05/02 12:39:26;;;;;;;10.32;5.20;;;17.70;88.50;;;;;;5041314;28;20037;-88
2022/05/02 12:42:10;;;;;;;11.48;5.43;;;17.60;88.10;;;;;;5042220;28;20185;-87
2022/05/02 12:44:56;;;;;;;11.63;5.30;;;17.60;90.80;;;;;;5039930;28;20194;-87
2022/05/02 12:47:25;;;;;;;12.45;5.35;;;17.60;92.20;;;;;;5052126;28;20070;-87
2022/05/02 12:50:05;;;;;;;10.63;5.68;;;17.60;92.90;;;;;;5039276;28;20120;-87
2022/05/02 12:52:32;;;;;;;11.63;5.63;;;17.70;93.70;;;;;;5049308;28;20124;-88
2022/05/02 12:54:59;;;;;;;10.30;5.30;;;17.80;93.60;;;;;;5042294;28;20055;-85
2022/05/02 13:00:33;;;;;;;11.98;6.30;;;18.00;94.40;;;;;;5069866;28;20118;-86
2022/05/02 13:03:02;;;;;;;11.27;5.47;;;17.90;93.50;;;;;;5033940;28;20045;-85
2022/05/02 13:05:32;;;;;;;12.50;5.53;;;18.10;93.60;;;;;;5053015;28;20032;-86
2022/05/02 13:08:09;;;;;;;11.93;6.00;;;18.10;93.20;;;;;;5055744;28;20048;-86
2022/05/02 13:10:35;;;;;;;11.73;5.95;;;18.10;93.60;;;;;;5049521;28;20065;-85
2022/05/02 13:13:08;;;;;;;10.10;5.68;;;18.30;93.80;;;;;;5058473;28;20045;-87
2022/05/02 13:15:49;;;;;;;13.18;6.07;;;18.50;94.30;;;;;;5050163;28;20036;-86
2022/05/02 13:18:20;;;;;;;12.85;6.07;;;18.60;94.60;;;;;;5049659;28;20044;-86
2022/05/02 13:21:16;;;;;;;11.85;6.25;;;18.60;94.30;;;;;;5044792;28;20043;-85
2022/05/02 13:23:48;;;;;;;11.18;6.30;;;18.50;92.80;;;;;;5049315;28;20049;-87
2022/05/02 13:26:33;;;;;;;10.80;6.03;;;18.40;94.00;;;;;;5052710;28;20050;-86
2022/05/02 13:29:21;;;;;;;11.48;6.32;;;18.30;94.50;;;;;;5062940;28;20051;-86
2022/05/02 13:31:56;;;;;;;10.63;5.95;;;18.20;94.70;;;;;;5043903;28;20167;-86
2022/05/02 13:34:35;;;;;;;11.77;6.38;;;17.90;93.80;;;;;;5050996;28;20051;-87
2022/05/02 13:37:26;;;;;;;12.88;5.88;;;17.60;94.60;;;;;;5064708;28;20497;-87
2022/05/02 13:39:56;;;;;;;12.25;5.80;;;17.60;95.10;;;;;;5069086;28;20129;-87
2022/05/02 13:42:49;;;;;;;10.50;6.05;;;17.60;96.70;;;;;;5065107;28;20040;-87
2022/05/02 13:45:28;;;;;;;10.73;5.85;;;17.60;96.40;;;;;;5064540;28;20048;-87
2022/05/02 13:48:10;;;;;;;11.00;5.97;;;17.60;97.10;;;;;;5048736;28;20033;-87
2022/05/02 13:50:42;;;;;;;11.70;5.75;;;17.60;96.80;;;;;;5067275;28;20097;-87
2022/05/02 13:53:35;;;;;;;10.35;6.03;;;17.60;97.70;;;;;;5069065;28;20047;-87